sensor_id;sensor_type;location;lat;lon;timestamp;P1;durP1;ratioP1;P2;durP2;ratioP2
84373;SDS011;74563;52.206;14.630;2024-03-02T00:02:25;68.80;;;30.17;;
84373;SDS011;74563;52.206;14.630;2024-03-02T00:07:15;72.70;;;29.90;;
84373;SDS011;74563;52.206;14.630;2024-03-02T00:09:41;69.43;;;29.63;;
84373;SDS011;74563;52.206;14.630;2024-03-02T00:14:32;69.70;;;30.42;;
84373;SDS011;74563;52.206;14.630;2024-03-02T00:19:22;66.67;;;29.00;;
84373;SDS011;74563;52.206;14.630;2024-03-02T00:21:48;69.28;;;29.25;;
84373;SDS011;74563;52.206;14.630;2024-03-02T00:24:33;63.50;;;28.70;;
84373;SDS011;74563;52.206;14.630;2024-03-02T00:27:00;71.75;;;28.83;;
84373;SDS011;74563;52.206;14.630;2024-03-02T00:29:26;67.50;;;29.30;;
84373;SDS011;74563;52.206;14.630;2024-03-02T00:31:52;66.57;;;27.98;;
84373;SDS011;74563;52.206;14.630;2024-03-02T00:36:43;74.40;;;28.90;;
84373;SDS011;74563;52.206;14.630;2024-03-02T00:39:11;66.65;;;29.98;;
84373;SDS011;74563;52.206;14.630;2024-03-02T00:41:38;67.38;;;30.00;;
84373;SDS011;74563;52.206;14.630;2024-03-02T00:44:07;68.90;;;30.52;;
84373;SDS011;74563;52.206;14.630;2024-03-02T00:46:38;63.05;;;28.23;;
84373;SDS011;74563;52.206;14.630;2024-03-02T00:51:35;66.30;;;29.23;;
84373;SDS011;74563;52.206;14.630;2024-03-02T00:54:03;71.43;;;30.55;;
84373;SDS011;74563;52.206;14.630;2024-03-02T00:56:30;74.95;;;31.67;;
84373;SDS011;74563;52.206;14.630;2024-03-02T00:58:56;75.53;;;31.98;;
84373;SDS011;74563;52.206;14.630;2024-03-02T01:01:21;70.43;;;31.05;;
84373;SDS011;74563;52.206;14.630;2024-03-02T01:06:12;74.00;;;32.13;;
84373;SDS011;74563;52.206;14.630;2024-03-02T01:11:03;71.53;;;27.70;;
84373;SDS011;74563;52.206;14.630;2024-03-02T01:13:29;70.05;;;30.40;;
84373;SDS011;74563;52.206;14.630;2024-03-02T01:15:55;68.57;;;27.43;;
84373;SDS011;74563;52.206;14.630;2024-03-02T01:20:47;67.95;;;28.85;;
84373;SDS011;74563;52.206;14.630;2024-03-02T01:23:12;73.95;;;32.33;;
84373;SDS011;74563;52.206;14.630;2024-03-02T01:25:38;75.33;;;30.70;;
84373;SDS011;74563;52.206;14.630;2024-03-02T01:28:03;68.43;;;28.83;;
84373;SDS011;74563;52.206;14.630;2024-03-02T01:30:29;75.68;;;31.38;;
84373;SDS011;74563;52.206;14.630;2024-03-02T01:32:54;74.27;;;30.67;;
84373;SDS011;74563;52.206;14.630;2024-03-02T01:37:45;70.40;;;27.70;;
84373;SDS011;74563;52.206;14.630;2024-03-02T01:40:10;75.22;;;30.23;;
84373;SDS011;74563;52.206;14.630;2024-03-02T01:45:02;67.38;;;27.02;;
84373;SDS011;74563;52.206;14.630;2024-03-02T01:47:28;69.03;;;28.45;;
84373;SDS011;74563;52.206;14.630;2024-03-02T01:49:54;68.50;;;27.70;;
84373;SDS011;74563;52.206;14.630;2024-03-02T01:54:44;68.23;;;28.50;;
84373;SDS011;74563;52.206;14.630;2024-03-02T01:59:35;85.68;;;36.17;;
84373;SDS011;74563;52.206;14.630;2024-03-02T02:02:00;73.50;;;29.77;;
84373;SDS011;74563;52.206;14.630;2024-03-02T02:04:26;77.35;;;32.80;;
84373;SDS011;74563;52.206;14.630;2024-03-02T02:06:52;72.18;;;30.88;;
84373;SDS011;74563;52.206;14.630;2024-03-02T02:09:18;76.55;;;31.60;;
84373;SDS011;74563;52.206;14.630;2024-03-02T02:11:44;74.05;;;32.72;;
84373;SDS011;74563;52.206;14.630;2024-03-02T02:14:09;79.00;;;31.77;;
84373;SDS011;74563;52.206;14.630;2024-03-02T02:16:35;76.20;;;30.83;;
84373;SDS011;74563;52.206;14.630;2024-03-02T02:19:00;69.93;;;27.97;;
84373;SDS011;74563;52.206;14.630;2024-03-02T02:23:51;71.43;;;27.60;;
84373;SDS011;74563;52.206;14.630;2024-03-02T02:26:16;76.17;;;31.23;;
84373;SDS011;74563;52.206;14.630;2024-03-02T02:28:41;64.53;;;28.43;;
84373;SDS011;74563;52.206;14.630;2024-03-02T02:31:15;81.65;;;31.92;;
84373;SDS011;74563;52.206;14.630;2024-03-02T02:33:41;70.03;;;28.58;;
84373;SDS011;74563;52.206;14.630;2024-03-02T02:36:07;71.25;;;29.77;;
84373;SDS011;74563;52.206;14.630;2024-03-02T02:38:33;72.15;;;30.33;;
84373;SDS011;74563;52.206;14.630;2024-03-02T02:41:03;71.25;;;29.02;;
84373;SDS011;74563;52.206;14.630;2024-03-02T02:43:28;69.13;;;28.90;;
84373;SDS011;74563;52.206;14.630;2024-03-02T02:48:18;67.07;;;28.53;;
84373;SDS011;74563;52.206;14.630;2024-03-02T02:53:09;67.13;;;28.03;;
84373;SDS011;74563;52.206;14.630;2024-03-02T02:58:00;69.77;;;27.13;;
84373;SDS011;74563;52.206;14.630;2024-03-02T03:00:25;69.38;;;29.73;;
84373;SDS011;74563;52.206;14.630;2024-03-02T03:02:50;75.83;;;30.03;;
84373;SDS011;74563;52.206;14.630;2024-03-02T03:07:41;74.72;;;30.40;;
84373;SDS011;74563;52.206;14.630;2024-03-02T03:12:33;71.95;;;30.75;;
84373;SDS011;74563;52.206;14.630;2024-03-02T03:14:59;72.20;;;29.88;;
84373;SDS011;74563;52.206;14.630;2024-03-02T03:19:50;68.27;;;29.13;;
84373;SDS011;74563;52.206;14.630;2024-03-02T03:24:41;72.93;;;28.98;;
84373;SDS011;74563;52.206;14.630;2024-03-02T03:29:31;72.22;;;28.77;;
84373;SDS011;74563;52.206;14.630;2024-03-02T03:31:56;70.30;;;29.10;;
84373;SDS011;74563;52.206;14.630;2024-03-02T03:36:47;73.07;;;30.07;;
84373;SDS011;74563;52.206;14.630;2024-03-02T03:41:37;72.23;;;27.27;;
84373;SDS011;74563;52.206;14.630;2024-03-02T03:46:28;71.72;;;28.75;;
84373;SDS011;74563;52.206;14.630;2024-03-02T03:51:20;74.40;;;28.98;;
84373;SDS011;74563;52.206;14.630;2024-03-02T03:53:47;71.18;;;29.17;;
84373;SDS011;74563;52.206;14.630;2024-03-02T03:56:12;76.00;;;32.28;;
84373;SDS011;74563;52.206;14.630;2024-03-02T04:01:03;72.13;;;28.53;;
84373;SDS011;74563;52.206;14.630;2024-03-02T04:03:28;77.23;;;30.33;;
84373;SDS011;74563;52.206;14.630;2024-03-02T04:08:19;72.60;;;29.20;;
84373;SDS011;74563;52.206;14.630;2024-03-02T04:13:10;81.33;;;37.47;;
84373;SDS011;74563;52.206;14.630;2024-03-02T04:18:00;74.77;;;30.50;;
84373;SDS011;74563;52.206;14.630;2024-03-02T04:22:51;74.00;;;27.73;;
84373;SDS011;74563;52.206;14.630;2024-03-02T04:25:16;79.30;;;31.63;;
84373;SDS011;74563;52.206;14.630;2024-03-02T04:30:06;73.03;;;28.50;;
84373;SDS011;74563;52.206;14.630;2024-03-02T04:34:57;74.90;;;28.63;;
84373;SDS011;74563;52.206;14.630;2024-03-02T04:37:22;81.03;;;30.67;;
84373;SDS011;74563;52.206;14.630;2024-03-02T04:42:13;76.27;;;30.93;;
84373;SDS011;74563;52.206;14.630;2024-03-02T04:44:38;82.72;;;31.92;;
84373;SDS011;74563;52.206;14.630;2024-03-02T04:49:29;74.22;;;29.73;;
84373;SDS011;74563;52.206;14.630;2024-03-02T04:54:20;81.27;;;31.63;;
84373;SDS011;74563;52.206;14.630;2024-03-02T04:59:14;86.38;;;35.47;;
84373;SDS011;74563;52.206;14.630;2024-03-02T05:01:40;87.03;;;35.00;;
84373;SDS011;74563;52.206;14.630;2024-03-02T05:04:06;85.10;;;33.87;;
84373;SDS011;74563;52.206;14.630;2024-03-02T05:06:31;86.47;;;34.03;;
84373;SDS011;74563;52.206;14.630;2024-03-02T05:11:22;85.30;;;32.88;;
84373;SDS011;74563;52.206;14.630;2024-03-02T05:14:03;81.20;;;31.40;;
84373;SDS011;74563;52.206;14.630;2024-03-02T05:16:28;99.63;;;41.33;;
84373;SDS011;74563;52.206;14.630;2024-03-02T05:18:54;95.38;;;40.85;;
84373;SDS011;74563;52.206;14.630;2024-03-02T05:21:19;86.60;;;36.30;;
84373;SDS011;74563;52.206;14.630;2024-03-02T05:23:44;85.50;;;35.13;;
84373;SDS011;74563;52.206;14.630;2024-03-02T05:26:10;83.63;;;35.78;;
84373;SDS011;74563;52.206;14.630;2024-03-02T05:28:37;76.28;;;33.58;;
84373;SDS011;74563;52.206;14.630;2024-03-02T05:31:03;113.22;;;56.00;;
84373;SDS011;74563;52.206;14.630;2024-03-02T05:35:56;89.78;;;43.25;;
84373;SDS011;74563;52.206;14.630;2024-03-02T05:38:21;80.77;;;37.73;;
84373;SDS011;74563;52.206;14.630;2024-03-02T05:43:12;71.10;;;30.90;;
84373;SDS011;74563;52.206;14.630;2024-03-02T05:45:37;76.63;;;34.58;;
84373;SDS011;74563;52.206;14.630;2024-03-02T05:48:02;67.57;;;28.87;;
84373;SDS011;74563;52.206;14.630;2024-03-02T05:52:53;76.90;;;34.17;;
84373;SDS011;74563;52.206;14.630;2024-03-02T05:57:43;70.83;;;30.43;;
84373;SDS011;74563;52.206;14.630;2024-03-02T06:00:09;67.13;;;29.83;;
84373;SDS011;74563;52.206;14.630;2024-03-02T06:02:34;68.63;;;29.48;;
84373;SDS011;74563;52.206;14.630;2024-03-02T06:05:02;62.10;;;26.30;;
84373;SDS011;74563;52.206;14.630;2024-03-02T06:07:29;67.15;;;28.45;;
84373;SDS011;74563;52.206;14.630;2024-03-02T06:09:54;62.77;;;25.77;;
84373;SDS011;74563;52.206;14.630;2024-03-02T06:14:45;60.72;;;26.92;;
84373;SDS011;74563;52.206;14.630;2024-03-02T06:19:35;60.13;;;26.40;;
84373;SDS011;74563;52.206;14.630;2024-03-02T06:24:26;62.10;;;26.53;;
84373;SDS011;74563;52.206;14.630;2024-03-02T06:26:51;64.87;;;25.30;;
84373;SDS011;74563;52.206;14.630;2024-03-02T06:31:42;58.95;;;23.90;;
84373;SDS011;74563;52.206;14.630;2024-03-02T06:36:33;65.15;;;27.45;;
84373;SDS011;74563;52.206;14.630;2024-03-02T06:38:59;63.78;;;26.23;;
84373;SDS011;74563;52.206;14.630;2024-03-02T06:43:51;271.40;;;80.50;;
84373;SDS011;74563;52.206;14.630;2024-03-02T06:46:24;276.77;;;88.57;;
84373;SDS011;74563;52.206;14.630;2024-03-02T06:48:49;126.40;;;50.87;;
84373;SDS011;74563;52.206;14.630;2024-03-02T06:51:14;104.30;;;47.00;;
84373;SDS011;74563;52.206;14.630;2024-03-02T06:56:06;62.50;;;25.27;;
84373;SDS011;74563;52.206;14.630;2024-03-02T06:58:32;67.07;;;26.45;;
84373;SDS011;74563;52.206;14.630;2024-03-02T07:03:22;59.27;;;24.13;;
84373;SDS011;74563;52.206;14.630;2024-03-02T07:08:13;62.00;;;25.17;;
84373;SDS011;74563;52.206;14.630;2024-03-02T07:13:03;58.83;;;23.63;;
84373;SDS011;74563;52.206;14.630;2024-03-02T07:18:12;64.63;;;24.58;;
84373;SDS011;74563;52.206;14.630;2024-03-02T07:23:03;63.22;;;23.60;;
84373;SDS011;74563;52.206;14.630;2024-03-02T07:27:54;70.57;;;27.17;;
84373;SDS011;74563;52.206;14.630;2024-03-02T07:32:45;68.17;;;25.13;;
84373;SDS011;74563;52.206;14.630;2024-03-02T07:37:40;60.25;;;25.30;;
84373;SDS011;74563;52.206;14.630;2024-03-02T07:40:06;62.97;;;23.90;;
84373;SDS011;74563;52.206;14.630;2024-03-02T07:42:36;64.20;;;24.77;;
84373;SDS011;74563;52.206;14.630;2024-03-02T07:47:26;66.70;;;25.33;;
84373;SDS011;74563;52.206;14.630;2024-03-02T07:52:17;62.37;;;26.63;;
84373;SDS011;74563;52.206;14.630;2024-03-02T07:57:07;60.53;;;24.40;;
84373;SDS011;74563;52.206;14.630;2024-03-02T08:01:58;67.97;;;26.23;;
84373;SDS011;74563;52.206;14.630;2024-03-02T08:06:49;67.85;;;26.23;;
84373;SDS011;74563;52.206;14.630;2024-03-02T08:11:40;66.40;;;26.83;;
84373;SDS011;74563;52.206;14.630;2024-03-02T08:14:05;67.13;;;25.53;;
84373;SDS011;74563;52.206;14.630;2024-03-02T08:18:55;67.37;;;25.90;;
84373;SDS011;74563;52.206;14.630;2024-03-02T08:21:23;69.95;;;28.65;;
84373;SDS011;74563;52.206;14.630;2024-03-02T08:23:48;69.65;;;28.65;;
84373;SDS011;74563;52.206;14.630;2024-03-02T08:28:39;72.20;;;27.97;;
84373;SDS011;74563;52.206;14.630;2024-03-02T08:31:05;77.78;;;30.42;;
84373;SDS011;74563;52.206;14.630;2024-03-02T08:33:31;70.95;;;28.15;;
84373;SDS011;74563;52.206;14.630;2024-03-02T08:35:57;71.97;;;28.50;;
84373;SDS011;74563;52.206;14.630;2024-03-02T08:38:22;72.97;;;28.50;;
84373;SDS011;74563;52.206;14.630;2024-03-02T08:43:14;76.28;;;29.45;;
84373;SDS011;74563;52.206;14.630;2024-03-02T08:45:40;72.75;;;28.17;;
84373;SDS011;74563;52.206;14.630;2024-03-02T08:50:33;79.82;;;29.60;;
84373;SDS011;74563;52.206;14.630;2024-03-02T08:55:24;74.33;;;28.47;;
84373;SDS011;74563;52.206;14.630;2024-03-02T09:00:15;73.78;;;27.25;;
84373;SDS011;74563;52.206;14.630;2024-03-02T09:02:42;72.03;;;28.50;;
84373;SDS011;74563;52.206;14.630;2024-03-02T09:05:09;71.75;;;28.42;;
84373;SDS011;74563;52.206;14.630;2024-03-02T09:09:59;73.70;;;28.70;;
84373;SDS011;74563;52.206;14.630;2024-03-02T09:14:50;79.47;;;28.90;;
84373;SDS011;74563;52.206;14.630;2024-03-02T09:19:40;73.47;;;27.93;;
84373;SDS011;74563;52.206;14.630;2024-03-02T09:22:06;77.10;;;29.50;;
84373;SDS011;74563;52.206;14.630;2024-03-02T09:26:58;72.93;;;28.60;;
84373;SDS011;74563;52.206;14.630;2024-03-02T09:31:48;72.43;;;27.20;;
84373;SDS011;74563;52.206;14.630;2024-03-02T09:34:15;70.72;;;27.63;;
84373;SDS011;74563;52.206;14.630;2024-03-02T09:39:07;74.57;;;27.40;;
84373;SDS011;74563;52.206;14.630;2024-03-02T09:41:34;80.03;;;30.30;;
84373;SDS011;74563;52.206;14.630;2024-03-02T09:44:00;73.78;;;28.73;;
84373;SDS011;74563;52.206;14.630;2024-03-02T09:48:51;66.70;;;25.83;;
84373;SDS011;74563;52.206;14.630;2024-03-02T09:51:16;80.50;;;31.27;;
84373;SDS011;74563;52.206;14.630;2024-03-02T09:53:44;78.35;;;30.83;;
84373;SDS011;74563;52.206;14.630;2024-03-02T09:56:10;70.32;;;29.17;;
84373;SDS011;74563;52.206;14.630;2024-03-02T10:01:01;69.27;;;27.40;;
84373;SDS011;74563;52.206;14.630;2024-03-02T10:05:53;66.38;;;26.33;;
84373;SDS011;74563;52.206;14.630;2024-03-02T10:10:44;67.17;;;26.47;;
84373;SDS011;74563;52.206;14.630;2024-03-02T10:15:36;69.72;;;27.42;;
84373;SDS011;74563;52.206;14.630;2024-03-02T10:18:03;74.45;;;29.38;;
84373;SDS011;74563;52.206;14.630;2024-03-02T10:20:29;71.95;;;27.17;;
84373;SDS011;74563;52.206;14.630;2024-03-02T10:25:32;72.80;;;25.98;;
84373;SDS011;74563;52.206;14.630;2024-03-02T10:27:58;73.38;;;27.67;;
84373;SDS011;74563;52.206;14.630;2024-03-02T10:30:24;74.65;;;30.02;;
84373;SDS011;74563;52.206;14.630;2024-03-02T10:32:51;71.13;;;28.85;;
84373;SDS011;74563;52.206;14.630;2024-03-02T10:35:18;71.53;;;27.52;;
84373;SDS011;74563;52.206;14.630;2024-03-02T10:37:44;72.82;;;28.05;;
84373;SDS011;74563;52.206;14.630;2024-03-02T10:40:12;70.27;;;26.83;;
84373;SDS011;74563;52.206;14.630;2024-03-02T10:42:39;71.82;;;29.08;;
84373;SDS011;74563;52.206;14.630;2024-03-02T10:45:09;67.38;;;27.15;;
84373;SDS011;74563;52.206;14.630;2024-03-02T10:47:36;68.13;;;28.02;;
84373;SDS011;74563;52.206;14.630;2024-03-02T10:50:03;68.15;;;30.13;;
84373;SDS011;74563;52.206;14.630;2024-03-02T10:52:36;74.07;;;29.02;;
84373;SDS011;74563;52.206;14.630;2024-03-02T10:55:02;70.28;;;28.25;;
84373;SDS011;74563;52.206;14.630;2024-03-02T10:57:42;81.78;;;34.00;;
84373;SDS011;74563;52.206;14.630;2024-03-02T11:00:15;75.88;;;32.28;;
84373;SDS011;74563;52.206;14.630;2024-03-02T11:05:15;70.47;;;28.30;;
84373;SDS011;74563;52.206;14.630;2024-03-02T11:07:51;68.90;;;28.23;;
84373;SDS011;74563;52.206;14.630;2024-03-02T11:10:21;65.53;;;26.95;;
84373;SDS011;74563;52.206;14.630;2024-03-02T11:12:56;57.22;;;23.50;;
84373;SDS011;74563;52.206;14.630;2024-03-02T11:17:52;57.50;;;22.85;;
84373;SDS011;74563;52.206;14.630;2024-03-02T11:20:18;64.95;;;31.73;;
84373;SDS011;74563;52.206;14.630;2024-03-02T11:22:45;54.53;;;21.63;;
84373;SDS011;74563;52.206;14.630;2024-03-02T11:25:22;60.28;;;23.92;;
84373;SDS011;74563;52.206;14.630;2024-03-02T11:32:58;61.00;;;24.80;;
84373;SDS011;74563;52.206;14.630;2024-03-02T11:35:25;74.32;;;29.55;;
84373;SDS011;74563;52.206;14.630;2024-03-02T11:37:51;68.57;;;27.23;;
84373;SDS011;74563;52.206;14.630;2024-03-02T11:40:21;58.65;;;23.27;;
84373;SDS011;74563;52.206;14.630;2024-03-02T11:42:47;56.45;;;23.63;;
84373;SDS011;74563;52.206;14.630;2024-03-02T11:45:15;49.15;;;23.65;;
84373;SDS011;74563;52.206;14.630;2024-03-02T11:47:46;48.65;;;20.70;;
84373;SDS011;74563;52.206;14.630;2024-03-02T11:50:15;54.95;;;24.70;;
84373;SDS011;74563;52.206;14.630;2024-03-02T11:55:06;39.30;;;18.02;;
84373;SDS011;74563;52.206;14.630;2024-03-02T11:57:34;39.05;;;18.25;;
84373;SDS011;74563;52.206;14.630;2024-03-02T12:00:00;44.53;;;19.10;;
84373;SDS011;74563;52.206;14.630;2024-03-02T12:02:28;48.05;;;20.60;;
84373;SDS011;74563;52.206;14.630;2024-03-02T12:04:54;143.15;;;67.18;;
84373;SDS011;74563;52.206;14.630;2024-03-02T12:07:21;45.20;;;21.70;;
84373;SDS011;74563;52.206;14.630;2024-03-02T12:09:48;42.90;;;20.73;;
84373;SDS011;74563;52.206;14.630;2024-03-02T12:12:18;45.28;;;19.88;;
84373;SDS011;74563;52.206;14.630;2024-03-02T12:14:51;44.30;;;18.60;;
84373;SDS011;74563;52.206;14.630;2024-03-02T12:17:18;41.38;;;18.42;;
84373;SDS011;74563;52.206;14.630;2024-03-02T12:19:44;46.70;;;19.85;;
84373;SDS011;74563;52.206;14.630;2024-03-02T12:22:10;41.60;;;18.30;;
84373;SDS011;74563;52.206;14.630;2024-03-02T12:24:36;43.47;;;18.85;;
84373;SDS011;74563;52.206;14.630;2024-03-02T12:27:02;40.05;;;17.80;;
84373;SDS011;74563;52.206;14.630;2024-03-02T12:29:29;44.65;;;21.00;;
84373;SDS011;74563;52.206;14.630;2024-03-02T12:31:54;40.97;;;18.52;;
84373;SDS011;74563;52.206;14.630;2024-03-02T12:34:20;41.97;;;20.17;;
84373;SDS011;74563;52.206;14.630;2024-03-02T12:36:46;41.88;;;18.25;;
84373;SDS011;74563;52.206;14.630;2024-03-02T12:39:17;44.78;;;19.30;;
84373;SDS011;74563;52.206;14.630;2024-03-02T12:41:43;37.45;;;17.63;;
84373;SDS011;74563;52.206;14.630;2024-03-02T12:44:08;35.78;;;17.27;;
84373;SDS011;74563;52.206;14.630;2024-03-02T12:46:34;38.92;;;17.42;;
84373;SDS011;74563;52.206;14.630;2024-03-02T12:49:07;35.10;;;16.92;;
84373;SDS011;74563;52.206;14.630;2024-03-02T12:51:35;43.40;;;20.63;;
84373;SDS011;74563;52.206;14.630;2024-03-02T12:54:00;44.20;;;18.00;;
84373;SDS011;74563;52.206;14.630;2024-03-02T12:56:26;39.97;;;18.02;;
84373;SDS011;74563;52.206;14.630;2024-03-02T12:58:55;39.22;;;17.15;;
84373;SDS011;74563;52.206;14.630;2024-03-02T13:01:20;36.97;;;17.63;;
84373;SDS011;74563;52.206;14.630;2024-03-02T13:03:49;32.38;;;15.75;;
84373;SDS011;74563;52.206;14.630;2024-03-02T13:06:16;31.92;;;15.52;;
84373;SDS011;74563;52.206;14.630;2024-03-02T13:08:42;34.80;;;16.17;;
84373;SDS011;74563;52.206;14.630;2024-03-02T13:11:07;32.88;;;16.38;;
84373;SDS011;74563;52.206;14.630;2024-03-02T13:13:33;35.30;;;17.27;;
84373;SDS011;74563;52.206;14.630;2024-03-02T13:15:59;36.67;;;16.63;;
84373;SDS011;74563;52.206;14.630;2024-03-02T13:18:25;36.17;;;18.02;;
84373;SDS011;74563;52.206;14.630;2024-03-02T13:20:51;33.75;;;15.70;;
84373;SDS011;74563;52.206;14.630;2024-03-02T13:23:16;34.00;;;15.70;;
84373;SDS011;74563;52.206;14.630;2024-03-02T13:25:42;35.70;;;16.35;;
84373;SDS011;74563;52.206;14.630;2024-03-02T13:28:08;36.53;;;15.45;;
84373;SDS011;74563;52.206;14.630;2024-03-02T13:30:33;34.83;;;18.33;;
84373;SDS011;74563;52.206;14.630;2024-03-02T13:32:59;35.73;;;16.73;;
84373;SDS011;74563;52.206;14.630;2024-03-02T13:35:24;34.45;;;16.75;;
84373;SDS011;74563;52.206;14.630;2024-03-02T13:37:49;30.90;;;17.17;;
84373;SDS011;74563;52.206;14.630;2024-03-02T13:40:15;35.05;;;16.05;;
84373;SDS011;74563;52.206;14.630;2024-03-02T13:42:44;34.28;;;16.55;;
84373;SDS011;74563;52.206;14.630;2024-03-02T13:45:11;41.85;;;19.80;;
84373;SDS011;74563;52.206;14.630;2024-03-02T13:47:36;39.40;;;18.98;;
84373;SDS011;74563;52.206;14.630;2024-03-02T13:50:01;40.77;;;17.80;;
84373;SDS011;74563;52.206;14.630;2024-03-02T13:52:27;38.92;;;16.90;;
84373;SDS011;74563;52.206;14.630;2024-03-02T13:54:52;33.50;;;15.70;;
84373;SDS011;74563;52.206;14.630;2024-03-02T13:57:18;40.22;;;16.67;;
84373;SDS011;74563;52.206;14.630;2024-03-02T13:59:45;40.22;;;19.50;;
84373;SDS011;74563;52.206;14.630;2024-03-02T14:02:11;34.78;;;15.60;;
84373;SDS011;74563;52.206;14.630;2024-03-02T14:04:36;32.45;;;16.25;;
84373;SDS011;74563;52.206;14.630;2024-03-02T14:07:02;29.75;;;14.93;;
84373;SDS011;74563;52.206;14.630;2024-03-02T14:09:28;31.38;;;15.57;;
84373;SDS011;74563;52.206;14.630;2024-03-02T14:11:54;32.55;;;16.45;;
84373;SDS011;74563;52.206;14.630;2024-03-02T14:14:19;36.35;;;17.15;;
84373;SDS011;74563;52.206;14.630;2024-03-02T14:16:45;28.98;;;15.98;;
84373;SDS011;74563;52.206;14.630;2024-03-02T14:19:11;33.85;;;15.70;;
84373;SDS011;74563;52.206;14.630;2024-03-02T14:21:37;34.72;;;16.33;;
84373;SDS011;74563;52.206;14.630;2024-03-02T14:24:03;31.73;;;15.32;;
84373;SDS011;74563;52.206;14.630;2024-03-02T14:26:28;35.15;;;16.88;;
84373;SDS011;74563;52.206;14.630;2024-03-02T14:28:54;38.60;;;21.67;;
84373;SDS011;74563;52.206;14.630;2024-03-02T14:31:19;33.28;;;16.10;;
84373;SDS011;74563;52.206;14.630;2024-03-02T14:33:45;32.72;;;15.27;;
84373;SDS011;74563;52.206;14.630;2024-03-02T14:36:10;32.55;;;14.85;;
84373;SDS011;74563;52.206;14.630;2024-03-02T14:38:36;36.42;;;17.23;;
84373;SDS011;74563;52.206;14.630;2024-03-02T14:41:02;31.58;;;15.00;;
84373;SDS011;74563;52.206;14.630;2024-03-02T14:43:28;32.83;;;17.38;;
84373;SDS011;74563;52.206;14.630;2024-03-02T14:45:54;33.20;;;16.33;;
84373;SDS011;74563;52.206;14.630;2024-03-02T14:48:19;29.83;;;14.43;;
84373;SDS011;74563;52.206;14.630;2024-03-02T14:50:45;37.47;;;17.65;;
84373;SDS011;74563;52.206;14.630;2024-03-02T14:53:10;31.10;;;14.20;;
84373;SDS011;74563;52.206;14.630;2024-03-02T14:55:36;31.85;;;15.57;;
84373;SDS011;74563;52.206;14.630;2024-03-02T14:58:02;37.30;;;14.97;;
84373;SDS011;74563;52.206;14.630;2024-03-02T15:00:27;30.30;;;15.73;;
84373;SDS011;74563;52.206;14.630;2024-03-02T15:02:52;71.83;;;30.17;;
84373;SDS011;74563;52.206;14.630;2024-03-02T15:05:18;77.40;;;31.17;;
84373;SDS011;74563;52.206;14.630;2024-03-02T15:07:43;78.80;;;32.03;;
84373;SDS011;74563;52.206;14.630;2024-03-02T15:10:08;36.83;;;17.27;;
84373;SDS011;74563;52.206;14.630;2024-03-02T15:12:34;32.92;;;15.55;;
84373;SDS011;74563;52.206;14.630;2024-03-02T15:14:59;30.95;;;14.00;;
84373;SDS011;74563;52.206;14.630;2024-03-02T15:17:24;30.93;;;15.03;;
84373;SDS011;74563;52.206;14.630;2024-03-02T15:19:51;33.25;;;14.05;;
84373;SDS011;74563;52.206;14.630;2024-03-02T15:22:16;31.17;;;15.43;;
84373;SDS011;74563;52.206;14.630;2024-03-02T15:24:42;35.35;;;16.73;;
84373;SDS011;74563;52.206;14.630;2024-03-02T15:27:07;37.28;;;16.08;;
84373;SDS011;74563;52.206;14.630;2024-03-02T15:29:33;33.60;;;16.95;;
84373;SDS011;74563;52.206;14.630;2024-03-02T15:31:59;29.27;;;14.82;;
84373;SDS011;74563;52.206;14.630;2024-03-02T15:34:24;29.58;;;14.30;;
84373;SDS011;74563;52.206;14.630;2024-03-02T15:36:50;33.05;;;15.10;;
84373;SDS011;74563;52.206;14.630;2024-03-02T15:39:15;33.10;;;14.07;;
84373;SDS011;74563;52.206;14.630;2024-03-02T15:41:41;31.08;;;14.40;;
84373;SDS011;74563;52.206;14.630;2024-03-02T15:44:08;32.05;;;15.05;;
84373;SDS011;74563;52.206;14.630;2024-03-02T15:46:34;31.73;;;15.03;;
84373;SDS011;74563;52.206;14.630;2024-03-02T15:48:59;28.73;;;14.82;;
84373;SDS011;74563;52.206;14.630;2024-03-02T15:51:27;32.83;;;15.48;;
84373;SDS011;74563;52.206;14.630;2024-03-02T15:53:53;33.47;;;14.68;;
84373;SDS011;74563;52.206;14.630;2024-03-02T15:56:18;34.83;;;15.33;;
84373;SDS011;74563;52.206;14.630;2024-03-02T15:58:44;34.17;;;16.08;;
84373;SDS011;74563;52.206;14.630;2024-03-02T16:01:10;33.80;;;15.73;;
84373;SDS011;74563;52.206;14.630;2024-03-02T16:03:36;37.42;;;18.90;;
84373;SDS011;74563;52.206;14.630;2024-03-02T16:06:01;33.77;;;16.43;;
84373;SDS011;74563;52.206;14.630;2024-03-02T16:08:26;34.83;;;16.63;;
84373;SDS011;74563;52.206;14.630;2024-03-02T16:10:52;36.10;;;18.80;;
84373;SDS011;74563;52.206;14.630;2024-03-02T16:13:18;33.83;;;16.65;;
84373;SDS011;74563;52.206;14.630;2024-03-02T16:15:43;34.83;;;17.17;;
84373;SDS011;74563;52.206;14.630;2024-03-02T16:18:09;37.60;;;17.53;;
84373;SDS011;74563;52.206;14.630;2024-03-02T16:20:34;39.28;;;20.17;;
84373;SDS011;74563;52.206;14.630;2024-03-02T16:22:59;35.10;;;17.53;;
84373;SDS011;74563;52.206;14.630;2024-03-02T16:25:25;40.30;;;19.50;;
84373;SDS011;74563;52.206;14.630;2024-03-02T16:27:50;33.77;;;15.87;;
84373;SDS011;74563;52.206;14.630;2024-03-02T16:30:17;33.50;;;17.35;;
84373;SDS011;74563;52.206;14.630;2024-03-02T16:32:43;40.00;;;17.65;;
84373;SDS011;74563;52.206;14.630;2024-03-02T16:35:08;41.17;;;18.97;;
84373;SDS011;74563;52.206;14.630;2024-03-02T16:37:34;40.37;;;19.03;;
84373;SDS011;74563;52.206;14.630;2024-03-02T16:39:59;43.50;;;20.13;;
84373;SDS011;74563;52.206;14.630;2024-03-02T16:42:24;44.13;;;22.13;;
84373;SDS011;74563;52.206;14.630;2024-03-02T16:44:50;45.33;;;21.17;;
84373;SDS011;74563;52.206;14.630;2024-03-02T16:47:19;47.90;;;21.40;;
84373;SDS011;74563;52.206;14.630;2024-03-02T16:49:44;49.50;;;21.53;;
84373;SDS011;74563;52.206;14.630;2024-03-02T16:52:10;49.38;;;22.73;;
84373;SDS011;74563;52.206;14.630;2024-03-02T16:54:37;52.92;;;25.27;;
84373;SDS011;74563;52.206;14.630;2024-03-02T16:57:02;46.07;;;21.30;;
84373;SDS011;74563;52.206;14.630;2024-03-02T16:59:27;52.10;;;25.08;;
84373;SDS011;74563;52.206;14.630;2024-03-02T17:04:18;46.43;;;20.47;;
84373;SDS011;74563;52.206;14.630;2024-03-02T17:06:43;46.27;;;21.57;;
84373;SDS011;74563;52.206;14.630;2024-03-02T17:09:08;47.17;;;20.97;;
84373;SDS011;74563;52.206;14.630;2024-03-02T17:11:33;47.47;;;23.30;;
84373;SDS011;74563;52.206;14.630;2024-03-02T17:13:59;41.67;;;19.52;;
84373;SDS011;74563;52.206;14.630;2024-03-02T17:16:25;36.60;;;18.63;;
84373;SDS011;74563;52.206;14.630;2024-03-02T17:18:50;41.93;;;17.93;;
84373;SDS011;74563;52.206;14.630;2024-03-02T17:23:41;37.20;;;16.48;;
84373;SDS011;74563;52.206;14.630;2024-03-02T17:26:07;64.63;;;29.47;;
84373;SDS011;74563;52.206;14.630;2024-03-02T17:28:32;63.77;;;30.83;;
84373;SDS011;74563;52.206;14.630;2024-03-02T17:30:57;55.10;;;25.03;;
84373;SDS011;74563;52.206;14.630;2024-03-02T17:33:23;57.50;;;28.27;;
84373;SDS011;74563;52.206;14.630;2024-03-02T17:35:48;63.43;;;30.20;;